METAR Data
IDs: Format: Raw Decoded Include TAF

Data at: 1243 UTC 16 Oct 2018

PAGK 161153Z AUTO 06006KT 10SM BKN075 09/02 A2944 RMK AO2 SLP986 70001 T00890022 10106 20044 56019 TSNO $
PAGK 161053Z AUTO 14009G18KT 10SM FEW075 SCT085 09/03 A2945 RMK AO2 SLP989 T00940033 TSNO $
PAGK 160953Z AUTO 14006KT 10SM SCT080 08/04 A2949 RMK AO2 SLP001 T00780039 TSNO $
PAGK 160853Z AUTO 14008KT 10SM BKN085 09/04 A2950 RMK AO2 SLP006 T00940044 400941011 58013 TSNO $
PAGK 160753Z AUTO 15010KT 10SM OVC085 08/04 A2952 RMK AO2 SLP011 T00830044 TSNO $
PAGK 160653Z AUTO 15011KT 10SM BKN070 08/05 A2953 RMK AO2 SLP017 T00780050 TSNO $
PAGK 160553Z AUTO 14005KT 10SM FEW060 04/03 A2954 RMK AO2 SLP024 60001 T00440033 10044 20006 58019 TSNO $
PAGK 160453Z AUTO 33004KT 10SM CLR 02/00 A2956 RMK SLP034 T00170000 TSNO $ VIA AUTODIAL
PAGK 160353Z AUTO 10SM FEW012 SCT060 02/00 A2959 RMK AO2 SLP043 T00170000 TSNO $
PAGK 160312Z AUTO 02005KT 10SM FEW009 BKN065 01/01 A2960 RMK AO2 T00110006 TSNO $
PAGK 160253Z AUTO 35003KT 10SM BKN007 01/01 A2960 RMK SLP047 60001 T00110006 56022 TSNO $ VIA AUTODIAL
PAGK 160203Z AUTO 00000KT 10SM OVC009 02/01 A2961 RMK AO2 T00170006 TSNO $
PAGK 160153Z AUTO 00000KT 10SM OVC010 02/01 A2962 RMK AO2 RAB01E52 SLP052 P0000 T00170011 TSNO $
PAGK 160119Z AUTO 00000KT 10SM -RA OVC014 02/01 A2962 RMK AO2 RAB01 P0000 T00170006 TSNO $
PAGK 160053Z AUTO 35004KT 10SM BKN018 BKN050 OVC070 01/00 A2963 RMK AO2 RAE42 SLP058 P0001 T00110000 TSNO $
PAGK 152353Z AUTO 36005KT 10SM -RA BKN060 OVC075 01/M01 A2967 RMK AO2 UPE2256RAB45 SLP071 P0000 60000 T00061011 10011 21011 58030 TSNO $
PAGK 152253Z AUTO 36004KT 10SM UP OVC065 00/M01 A2970 RMK AO2 RAE18UPB18 SLP082 P0000 T00001011 TSNO $
PAGK 152153Z AUTO 35004KT 10SM -RA OVC070 01/M02 A2973 RMK AO2 RAB46 SLP093 P0000 T00061022 TSNO $
PAGK 152053Z AUTO VRB04KT 10SM BKN080 OVC100 01/M02 A2976 RMK AO2 SLP104 T00061022 58018 TSNO $
PAGK 151953Z AUTO 35006KT 10SM CLR 00/M02 A2978 RMK AO2 SLP111 T00001022 TSNO $
PAGK 151853Z AUTO 02006KT 10SM CLR 00/M02 A2980 RMK AO2 SLP117 T00001022 TSNO $
PAGK 151753Z AUTO 03005KT 10SM BKN060 M01/M02 A2982 RMK AO2 SLP123 T10061022 10006 21011 58004 TSNO
PAGK 151707Z AUTO 02003KT 10SM SCT004 OVC055 M01/M02 A2982 RMK AO2 T10111017 TSNO
PAGK 151653Z AUTO 01004KT 10SM BKN004 OVC055 M01/M02 A2982 RMK AO2 SLP125 T10111017 TSNO
PAGK 151625Z AUTO 34003KT 10SM BKN004 OVC010 M01/M01 A2983 RMK AO2 T10111011 TSNO
PAGK 151553Z AUTO 02005KT 10SM BKN007 OVC010 M01/M01 A2983 RMK AO2 SLP127 T10061011 TSNO $
PAGK 151548Z AUTO 02005KT 10SM OVC005 M01/M01 A2983 RMK AO2 TSNO $
PAGK 151518Z AUTO 03006KT 2 1/2SM BR OVC003 00/00 A2984 RMK AO2 T00000000 TSNO $
PAGK 151453Z AUTO 03004KT 7SM OVC003 01/00 A2984 RMK AO2 SLP128 T00060000 55006 TSNO $
PAGK 151437Z AUTO 00000KT 8SM OVC003 01/00 A2984 RMK AO2 T00060000 TSNO $
PAGK 151413Z AUTO 00000KT 6SM BR BKN004 OVC007 01/00 A2982 RMK AO2 T00060000 TSNO $
PAGK 151353Z AUTO 00000KT 9SM FEW004 OVC009 01/00 A2983 RMK SLP127 T00060000 TSNO $ VIA AUTODIAL
PAGK 151314Z AUTO 00000KT 10SM OVC009 01/00 A2985 RMK T00060000 TSNO $ VIA AUTODIAL
PAGK 151253Z AUTO 00000KT 10SM OVC010 01/00 A2986 RMK AO2 SLP135 T00060000 TSNO $
PAGK 151153Z AUTO 00000KT 10SM OVC011 01/00 A2986 RMK AO2 SLP135 T00060000 10006 20006 52003 TSNO $
PAGK 151053Z AUTO 12003KT 10SM OVC012 01/00 A2986 RMK AO2 SLP135 T00060000 TSNO $
PAGK 150953Z AUTO 00000KT 10SM OVC013 01/00 A2985 RMK AO2 SLP133 T00060000 TSNO $
PAGK 150853Z AUTO 13004KT 10SM OVC013 01/00 A2985 RMK AO2 SLP133 T00060000 400171056 51003 TSNO $
PAGK 150753Z AUTO 14004KT 10SM FEW003 OVC014 01/01 A2985 RMK AO2 SLP133 T00060006 TSNO $
PAGK 150748Z AUTO 13004KT 10SM SCT003 OVC014 01/01 A2984 RMK AO2 TSNO $
PAGK 150653Z AUTO 14003KT 10SM OVC003 01/01 A2984 RMK AO2 SLP130 T00060006 TSNO $
PAGK 150614Z AUTO 13003KT 9SM OVC003 01/01 A2983 RMK AO2 T00060006 TSNO $
PAGK 150553Z AUTO 16004KT 9SM OVC004 01/01 A2983 RMK AO2 SLP128 T00060006 10017 20006 58001 TSNO $
PAGK 150539Z AUTO 17003KT 10SM OVC004 01/01 A2984 RMK AO2 T00060006 TSNO $
PAGK 150453Z AUTO 00000KT 10SM OVC005 01/00 A2984 RMK AO2 SLP131 T00110000 TSNO $
PAGK 150353Z AUTO 14003KT 10SM OVC007 01/01 A2984 RMK AO2 SLP130 T00110006 TSNO $
PAGK 150253Z AUTO 00000KT 10SM OVC007 02/01 A2984 RMK AO2 SLP132 T00170006 56020 TSNO $
PAGK 150153Z AUTO 00000KT 10SM OVC006 02/01 A2984 RMK AO2 SLP134 T00170006 TSNO $
PAGK 150133Z AUTO 00000KT 10SM OVC005 02/01 A2985 RMK AO2 T00170006 TSNO $
PAGK 150053Z AUTO 02003KT 10SM OVC004 02/01 A2986 RMK AO2 SLP138 T00170006 TSNO $